createdAt,value
2024-02-08T00:02:21.018Z,10.10
2024-02-08T00:04:50.847Z,10.00
2024-02-08T00:07:19.041Z,10.10
2024-02-08T00:09:46.814Z,10.20
2024-02-08T00:12:14.609Z,10.20
2024-02-08T00:14:42.394Z,10.20
2024-02-08T00:17:10.402Z,10.00
2024-02-08T00:19:38.260Z,9.80
2024-02-08T00:22:06.036Z,9.80
2024-02-08T00:24:38.492Z,9.90
2024-02-08T00:27:06.314Z,9.80
2024-02-08T00:29:34.162Z,10.00
2024-02-08T00:32:01.914Z,10.10
2024-02-08T00:34:29.856Z,10.10
2024-02-08T00:36:57.534Z,10.10
2024-02-08T00:39:25.315Z,10.10
2024-02-08T00:41:53.122Z,10.00
2024-02-08T00:44:20.883Z,9.80
2024-02-08T00:46:53.209Z,9.70
2024-02-08T00:49:22.618Z,9.60
2024-02-08T00:51:50.690Z,9.50
2024-02-08T00:54:18.612Z,9.50
2024-02-08T00:56:46.439Z,9.50
2024-02-08T00:59:17.030Z,9.60
2024-02-08T01:01:44.961Z,9.60
2024-02-08T01:04:13.028Z,9.60
2024-02-08T01:06:42.330Z,9.70
2024-02-08T01:09:10.172Z,9.70
2024-02-08T01:11:38.012Z,9.70
2024-02-08T01:14:05.785Z,9.70
2024-02-08T01:16:44.321Z,9.70
2024-02-08T01:19:12.369Z,9.70
2024-02-08T01:21:40.175Z,9.70
2024-02-08T01:24:07.881Z,9.70
2024-02-08T01:26:35.681Z,9.70
2024-02-08T01:29:06.934Z,9.70
2024-02-08T01:31:38.941Z,9.60
2024-02-08T01:34:07.137Z,9.50
2024-02-08T01:36:38.510Z,9.40
2024-02-08T01:39:08.386Z,9.40
2024-02-08T01:41:37.046Z,9.50
2024-02-08T01:44:06.096Z,9.60
2024-02-08T01:46:39.661Z,9.70
2024-02-08T01:49:08.763Z,9.60
2024-02-08T01:51:39.423Z,9.60
2024-02-08T01:54:11.823Z,9.40
2024-02-08T01:56:43.444Z,9.20
2024-02-08T01:59:15.085Z,9.10
2024-02-08T02:01:47.935Z,9.10
2024-02-08T02:04:17.578Z,9.10
2024-02-08T02:06:47.297Z,9.10
2024-02-08T02:09:27.187Z,9.10
2024-02-08T02:12:11.808Z,9.10
2024-02-08T02:14:40.528Z,9.20
2024-02-08T02:17:14.594Z,9.20
2024-02-08T02:19:43.341Z,9.20
2024-02-08T02:22:13.344Z,9.30
2024-02-08T02:24:42.475Z,9.20
2024-02-08T02:27:12.432Z,9.10
2024-02-08T02:29:41.445Z,9.10
2024-02-08T02:32:12.881Z,9.10
2024-02-08T02:34:44.040Z,8.90
2024-02-08T02:37:16.051Z,9.00
2024-02-08T02:39:43.816Z,9.00
2024-02-08T02:42:11.627Z,9.00
2024-02-08T02:44:39.340Z,9.10
2024-02-08T02:47:07.500Z,9.00
2024-02-08T02:49:39.149Z,9.00
2024-02-08T02:52:11.905Z,9.10
2024-02-08T02:54:42.410Z,9.30
2024-02-08T02:57:12.736Z,9.40
2024-02-08T02:59:40.761Z,9.40
2024-02-08T03:02:09.995Z,9.40
2024-02-08T03:04:38.017Z,9.30
2024-02-08T03:07:07.905Z,9.30
2024-02-08T03:09:35.699Z,9.20
2024-02-08T03:12:03.507Z,9.00
2024-02-08T03:14:31.386Z,9.20
2024-02-08T03:17:03.266Z,9.20
2024-02-08T03:19:37.524Z,9.20
2024-02-08T03:22:09.691Z,9.10
2024-02-08T03:24:38.400Z,9.10
2024-02-08T03:27:06.944Z,9.20
2024-02-08T03:29:37.628Z,9.30
2024-02-08T03:32:05.838Z,9.20
2024-02-08T03:34:36.836Z,8.90
2024-02-08T03:37:07.940Z,8.90
2024-02-08T03:39:36.970Z,9.00
2024-02-08T03:42:05.953Z,9.10
2024-02-08T03:44:35.828Z,9.10
2024-02-08T03:47:10.238Z,8.90
2024-02-08T03:49:39.820Z,8.90
2024-02-08T03:52:10.935Z,8.90
2024-02-08T03:54:38.901Z,8.80
2024-02-08T03:57:07.661Z,8.80
2024-02-08T03:59:42.459Z,8.80
2024-02-08T04:02:11.227Z,8.80
2024-02-08T04:05:01.577Z,8.70
2024-02-08T04:07:47.187Z,8.70
2024-02-08T04:10:31.265Z,8.60
2024-02-08T04:13:17.443Z,8.70
2024-02-08T04:16:05.648Z,8.80
2024-02-08T04:18:51.920Z,8.60
2024-02-08T04:21:38.518Z,8.50
2024-02-08T04:24:25.035Z,8.40
2024-02-08T04:27:11.079Z,8.20
2024-02-08T04:29:57.226Z,8.20
2024-02-08T04:32:43.513Z,8.20
2024-02-08T04:35:36.350Z,8.10
2024-02-08T04:38:22.951Z,8.20
2024-02-08T04:41:09.496Z,8.30
2024-02-08T04:43:56.177Z,8.20
2024-02-08T04:46:43.754Z,8.00
2024-02-08T04:49:46.807Z,8.00
2024-02-08T04:52:33.161Z,7.90
2024-02-08T04:55:01.230Z,8.00
2024-02-08T04:57:28.943Z,8.00
2024-02-08T05:00:01.063Z,8.00
2024-02-08T05:02:32.497Z,7.90
2024-02-08T05:05:00.362Z,8.00
2024-02-08T05:07:28.383Z,8.20
2024-02-08T05:09:56.172Z,8.00
2024-02-08T05:12:23.945Z,7.90
2024-02-08T05:14:51.707Z,7.80
2024-02-08T05:17:19.513Z,7.60
2024-02-08T05:19:47.389Z,7.40
2024-02-08T05:22:15.492Z,7.40
2024-02-08T05:24:43.634Z,7.30
2024-02-08T05:27:12.758Z,7.20
2024-02-08T05:29:42.899Z,7.30
2024-02-08T05:32:11.745Z,7.40
2024-02-08T05:34:41.082Z,7.60
2024-02-08T05:37:09.242Z,7.60
2024-02-08T05:39:38.115Z,7.60
2024-02-08T05:42:07.117Z,7.60
2024-02-08T05:44:37.447Z,7.40
2024-02-08T05:47:09.859Z,7.10
2024-02-08T05:49:40.034Z,7.10
2024-02-08T05:52:09.004Z,7.00
2024-02-08T05:54:42.220Z,6.90
2024-02-08T05:57:13.103Z,7.00
2024-02-08T05:59:41.939Z,6.90
2024-02-08T06:02:18.940Z,6.90
2024-02-08T06:04:53.631Z,6.80
2024-02-08T06:07:22.335Z,6.90
2024-02-08T06:09:56.625Z,7.10
2024-02-08T06:12:43.075Z,7.20
2024-02-08T06:15:27.193Z,7.30
2024-02-08T06:18:08.049Z,7.30
2024-02-08T06:20:43.709Z,7.30
2024-02-08T06:23:19.556Z,7.30
2024-02-08T06:26:10.577Z,7.00
2024-02-08T06:28:42.662Z,7.10
2024-02-08T06:31:16.334Z,7.20
2024-02-08T06:34:04.710Z,7.20
2024-02-08T06:36:36.023Z,7.20
2024-02-08T06:39:24.530Z,7.30
2024-02-08T06:41:54.471Z,7.40
2024-02-08T06:44:43.995Z,7.40
2024-02-08T06:47:40.634Z,7.50
2024-02-08T06:50:27.164Z,7.50
2024-02-08T06:53:13.384Z,7.60
2024-02-08T06:55:59.681Z,7.50
2024-02-08T06:58:46.408Z,7.30
2024-02-08T07:01:32.511Z,7.70
2024-02-08T07:04:19.060Z,7.70
2024-02-08T07:07:05.336Z,7.80
2024-02-08T07:09:51.686Z,7.80
2024-02-08T07:12:38.000Z,7.80
2024-02-08T07:15:25.361Z,7.70
2024-02-08T07:18:13.941Z,7.60
2024-02-08T07:21:00.482Z,7.50
2024-02-08T07:23:46.762Z,7.60
2024-02-08T07:26:37.145Z,7.80
2024-02-08T07:29:24.063Z,7.80
2024-02-08T07:32:10.325Z,7.90
2024-02-08T07:34:56.256Z,8.00
2024-02-08T07:37:27.103Z,8.10
2024-02-08T07:39:55.622Z,8.20
2024-02-08T07:42:34.213Z,8.20
2024-02-08T07:45:08.785Z,8.10
2024-02-08T07:47:36.658Z,8.10
2024-02-08T07:50:06.287Z,8.20
2024-02-08T07:52:47.754Z,8.00
2024-02-08T07:55:33.335Z,8.20
2024-02-08T07:58:01.374Z,8.30
2024-02-08T08:00:41.258Z,8.30
2024-02-08T08:03:17.612Z,8.20
2024-02-08T08:05:47.060Z,8.40
2024-02-08T08:08:30.073Z,8.40
2024-02-08T08:11:05.892Z,8.50
2024-02-08T08:13:54.845Z,8.60
2024-02-08T08:16:33.233Z,8.50
2024-02-08T08:19:09.496Z,8.60
2024-02-08T08:21:58.149Z,8.50
2024-02-08T08:24:29.191Z,8.80
2024-02-08T08:27:19.317Z,8.80
2024-02-08T08:29:47.133Z,8.90
2024-02-08T08:32:31.169Z,9.00
2024-02-08T08:35:23.389Z,9.00
2024-02-08T08:38:10.431Z,8.90
2024-02-08T08:40:41.843Z,8.70
2024-02-08T08:43:21.323Z,8.80
2024-02-08T08:45:54.352Z,8.70
2024-02-08T08:48:23.133Z,8.70
2024-02-08T08:50:57.081Z,8.60
2024-02-08T08:53:44.483Z,8.60
2024-02-08T08:56:12.946Z,8.60
2024-02-08T08:58:42.486Z,8.60
2024-02-08T09:01:20.454Z,8.70
2024-02-08T09:04:08.442Z,8.90
2024-02-08T09:06:37.814Z,9.00
2024-02-08T09:09:26.161Z,9.10
2024-02-08T09:11:59.251Z,9.20
2024-02-08T09:14:33.806Z,9.30
2024-02-08T09:17:24.031Z,9.30
2024-02-08T09:20:00.590Z,9.30
2024-02-08T09:22:35.897Z,9.30
2024-02-08T09:25:22.815Z,9.50
2024-02-08T09:28:06.640Z,9.50
2024-02-08T09:30:41.569Z,9.60
2024-02-08T09:33:15.484Z,9.70
2024-02-08T09:35:44.123Z,9.80
2024-02-08T09:38:14.494Z,9.70
2024-02-08T09:40:47.106Z,9.60
2024-02-08T09:43:19.463Z,9.80
2024-02-08T09:46:07.249Z,9.90
2024-02-08T09:48:47.451Z,10.00
2024-02-08T09:51:24.541Z,10.10
2024-02-08T09:53:53.669Z,10.20
2024-02-08T09:56:37.154Z,10.20
2024-02-08T09:59:11.373Z,10.20
2024-02-08T10:01:46.444Z,10.30
2024-02-08T10:04:19.697Z,10.20
2024-02-08T10:06:48.257Z,10.20
2024-02-08T10:09:34.786Z,10.20
2024-02-08T10:12:12.976Z,10.20
2024-02-08T10:14:46.104Z,10.20
2024-02-08T10:17:29.462Z,10.20
2024-02-08T10:20:17.841Z,10.20
2024-02-08T10:22:59.400Z,10.20
2024-02-08T10:25:47.570Z,10.30
2024-02-08T10:28:27.361Z,10.10
2024-02-08T10:31:09.140Z,10.00
2024-02-08T10:33:39.726Z,10.00
2024-02-08T10:36:16.671Z,10.20
2024-02-08T10:38:57.850Z,10.10
2024-02-08T10:41:38.943Z,10.10
2024-02-08T10:44:08.076Z,10.20
2024-02-08T10:46:43.608Z,10.20
2024-02-08T10:49:12.957Z,10.10
2024-02-08T10:51:45.146Z,10.20
2024-02-08T10:54:17.066Z,10.20
2024-02-08T10:57:08.242Z,10.20
2024-02-08T10:59:49.104Z,10.20
2024-02-08T11:02:36.106Z,10.30
2024-02-08T11:05:23.397Z,10.40
2024-02-08T11:07:54.769Z,10.40
2024-02-08T11:10:25.576Z,10.50
2024-02-08T11:13:30.698Z,10.50
2024-02-08T11:16:21.374Z,10.60
2024-02-08T11:18:54.829Z,10.70
2024-02-08T11:21:45.458Z,10.80
2024-02-08T11:24:30.833Z,11.00
2024-02-08T11:27:04.135Z,11.30
2024-02-08T11:29:48.355Z,11.00
2024-02-08T11:32:18.522Z,11.00
2024-02-08T11:34:47.907Z,10.90
2024-02-08T11:37:20.623Z,11.00
2024-02-08T11:40:03.318Z,11.30
2024-02-08T11:42:38.551Z,11.50
2024-02-08T11:45:10.811Z,11.60
2024-02-08T11:47:43.153Z,11.60
2024-02-08T11:50:22.378Z,11.80
2024-02-08T11:53:00.996Z,11.80
2024-02-08T11:55:32.929Z,11.90
2024-02-08T11:58:07.124Z,11.90
2024-02-08T12:00:50.289Z,12.00
2024-02-08T12:03:18.673Z,12.10
2024-02-08T12:05:58.765Z,12.30
2024-02-08T12:08:34.285Z,12.70
2024-02-08T12:11:08.607Z,12.60
2024-02-08T12:13:41.340Z,12.60
2024-02-08T12:16:09.266Z,12.60
2024-02-08T12:18:37.929Z,12.60
2024-02-08T12:21:12.921Z,12.60
2024-02-08T12:23:42.251Z,12.30
2024-02-08T12:26:13.460Z,12.30
2024-02-08T12:28:44.542Z,12.40
2024-02-08T12:31:20.038Z,12.30
2024-02-08T12:33:53.826Z,12.30
2024-02-08T12:36:24.589Z,12.40
2024-02-08T12:38:55.579Z,12.50
2024-02-08T12:41:24.841Z,12.40
2024-02-08T12:43:56.870Z,12.60
2024-02-08T12:46:24.981Z,12.60
2024-02-08T12:48:53.132Z,12.70
2024-02-08T12:51:21.824Z,12.70
2024-02-08T12:53:57.551Z,12.90
2024-02-08T12:56:26.517Z,13.30
2024-02-08T12:59:06.450Z,13.40
2024-02-08T13:01:48.444Z,13.40
2024-02-08T13:04:21.337Z,13.70
2024-02-08T13:06:49.924Z,13.80
2024-02-08T13:09:27.926Z,14.00
2024-02-08T13:12:22.631Z,14.10
2024-02-08T13:14:50.937Z,13.90
2024-02-08T13:17:20.467Z,13.70
2024-02-08T13:19:49.848Z,13.60
2024-02-08T13:22:22.703Z,13.40
2024-02-08T13:24:54.349Z,13.30
2024-02-08T13:27:30.626Z,13.30
2024-02-08T13:30:00.790Z,13.30
2024-02-08T13:32:32.866Z,13.50
2024-02-08T13:35:04.436Z,13.60
2024-02-08T13:37:32.851Z,13.50
2024-02-08T13:40:06.466Z,13.50
2024-02-08T13:42:47.455Z,13.30
2024-02-08T13:45:27.096Z,13.10
2024-02-08T13:47:59.374Z,13.00
2024-02-08T13:50:33.151Z,13.00
2024-02-08T13:53:03.590Z,13.00
2024-02-08T13:55:45.723Z,12.90
2024-02-08T13:58:20.243Z,12.90
2024-02-08T14:00:49.471Z,13.00
2024-02-08T14:03:24.022Z,13.00
2024-02-08T14:05:53.969Z,12.90
2024-02-08T14:08:28.910Z,12.80
2024-02-08T14:10:59.963Z,12.80
2024-02-08T14:13:36.751Z,12.90
2024-02-08T14:16:16.329Z,12.80
2024-02-08T14:18:54.505Z,12.70
2024-02-08T14:21:27.568Z,12.70
2024-02-08T14:24:02.745Z,12.90
2024-02-08T14:26:44.531Z,12.80
2024-02-08T14:29:14.374Z,12.70
2024-02-08T14:31:43.248Z,12.60
2024-02-08T14:34:12.825Z,12.70
2024-02-08T14:36:49.641Z,12.70
2024-02-08T14:39:30.349Z,12.70
2024-02-08T14:42:03.920Z,12.60
2024-02-08T14:44:42.502Z,12.70
2024-02-08T14:47:16.988Z,12.80
2024-02-08T14:49:58.196Z,12.80
2024-02-08T14:52:36.721Z,12.90
2024-02-08T14:55:21.722Z,12.90
2024-02-08T14:57:53.957Z,12.80
2024-02-08T15:00:31.328Z,12.90
2024-02-08T15:03:10.340Z,12.80
2024-02-08T15:05:48.849Z,12.70
2024-02-08T15:08:23.746Z,12.80
2024-02-08T15:11:04.169Z,12.70
2024-02-08T15:13:48.036Z,12.70
2024-02-08T15:16:23.530Z,12.60
2024-02-08T15:18:55.617Z,12.60
2024-02-08T15:21:27.120Z,12.70
2024-02-08T15:24:11.728Z,12.60
2024-02-08T15:26:46.084Z,12.50
2024-02-08T15:29:35.105Z,12.40
2024-02-08T15:32:19.044Z,12.50
2024-02-08T15:34:54.904Z,12.70
2024-02-08T15:37:29.684Z,12.60
2024-02-08T15:39:59.908Z,12.40
2024-02-08T15:42:34.187Z,12.40
2024-02-08T15:45:02.560Z,12.40
2024-02-08T15:47:30.465Z,12.40
2024-02-08T15:49:59.888Z,12.30
2024-02-08T15:52:30.931Z,12.30
2024-02-08T15:55:00.653Z,12.30
2024-02-08T15:57:39.534Z,12.20
2024-02-08T16:00:30.713Z,12.20
2024-02-08T16:03:03.702Z,12.10
2024-02-08T16:05:31.827Z,11.90
2024-02-08T16:08:07.323Z,11.80
2024-02-08T16:10:36.019Z,11.80
2024-02-08T16:13:07.085Z,11.80
2024-02-08T16:15:57.429Z,11.80
2024-02-08T16:18:30.853Z,11.70
2024-02-08T16:21:00.800Z,11.70
2024-02-08T16:23:29.173Z,11.70
2024-02-08T16:26:07.844Z,11.70
2024-02-08T16:28:39.250Z,11.70
2024-02-08T16:31:19.633Z,11.60
2024-02-08T16:34:10.872Z,11.60
2024-02-08T16:36:46.420Z,11.60
2024-02-08T16:39:14.403Z,11.60
2024-02-08T16:42:00.796Z,11.50
2024-02-08T16:44:48.515Z,11.50
2024-02-08T16:47:29.546Z,11.60
2024-02-08T16:50:08.499Z,11.60
2024-02-08T16:52:47.188Z,11.60
2024-02-08T16:55:23.976Z,11.60
2024-02-08T16:58:02.605Z,11.60
2024-02-08T17:00:51.109Z,11.60
2024-02-08T17:03:37.588Z,11.70
2024-02-08T17:06:18.227Z,11.70
2024-02-08T17:09:02.672Z,11.70
2024-02-08T17:11:35.036Z,11.40
2024-02-08T17:14:04.999Z,11.50
2024-02-08T17:16:32.832Z,11.50
2024-02-08T17:19:18.994Z,11.40
2024-02-08T17:22:07.321Z,11.40
2024-02-08T17:24:41.338Z,11.40
2024-02-08T17:27:27.684Z,11.50
2024-02-08T17:30:05.652Z,11.40
2024-02-08T17:32:44.458Z,11.50
2024-02-08T17:35:17.529Z,11.50
2024-02-08T17:38:01.607Z,11.40
2024-02-08T17:40:32.620Z,11.50
2024-02-08T17:43:01.283Z,11.40
2024-02-08T17:45:57.016Z,11.40
2024-02-08T17:48:30.242Z,11.40
2024-02-08T17:51:01.329Z,11.40
2024-02-08T17:53:29.514Z,11.30
2024-02-08T17:56:09.392Z,11.40
2024-02-08T17:58:37.415Z,11.40
2024-02-08T18:01:08.604Z,11.40
2024-02-08T18:03:36.712Z,11.50
2024-02-08T18:06:06.107Z,11.40
2024-02-08T18:08:40.178Z,11.40
2024-02-08T18:11:09.635Z,11.30
2024-02-08T18:13:39.552Z,11.20
2024-02-08T18:16:15.558Z,11.20
2024-02-08T18:18:43.459Z,11.40
2024-02-08T18:21:22.739Z,11.30
2024-02-08T18:23:54.572Z,11.30
2024-02-08T18:26:33.120Z,11.30
2024-02-08T18:29:11.223Z,11.20
2024-02-08T18:31:41.332Z,11.20
2024-02-08T18:34:10.707Z,11.20
2024-02-08T18:36:46.924Z,11.20
2024-02-08T18:39:27.447Z,11.20
2024-02-08T18:42:00.241Z,11.20
2024-02-08T18:44:36.178Z,11.10
2024-02-08T18:47:06.987Z,11.20
2024-02-08T18:49:34.913Z,11.10
2024-02-08T18:52:06.256Z,11.10
2024-02-08T18:55:32.347Z,11.20
2024-02-08T18:58:02.537Z,11.20
2024-02-08T19:00:31.580Z,11.20
2024-02-08T19:03:04.951Z,11.30
2024-02-08T19:05:33.025Z,11.20
2024-02-08T19:08:00.845Z,11.20
2024-02-08T19:10:31.084Z,11.20
2024-02-08T19:13:00.920Z,11.20
2024-02-08T19:15:30.742Z,11.10
2024-02-08T19:18:06.040Z,11.10
2024-02-08T19:20:36.989Z,11.20
2024-02-08T19:23:06.759Z,11.20
2024-02-08T19:25:37.035Z,11.20
2024-02-08T19:28:08.313Z,11.20
2024-02-08T19:30:37.529Z,11.10
2024-02-08T19:33:12.253Z,11.10
2024-02-08T19:35:42.196Z,11.10
2024-02-08T19:38:12.771Z,11.10
2024-02-08T19:40:46.390Z,11.20
2024-02-08T19:43:20.323Z,11.20
2024-02-08T19:45:55.561Z,11.10
2024-02-08T19:48:28.216Z,11.10
2024-02-08T19:50:57.538Z,11.00
2024-02-08T19:53:31.772Z,11.00
2024-02-08T19:55:59.585Z,11.00
2024-02-08T19:58:29.633Z,11.10
2024-02-08T20:01:01.700Z,11.20
2024-02-08T20:03:29.495Z,11.20
2024-02-08T20:06:00.783Z,11.10
2024-02-08T20:08:30.842Z,10.90
2024-02-08T20:11:05.345Z,11.00
2024-02-08T20:13:35.447Z,11.00
2024-02-08T20:16:06.820Z,11.00
2024-02-08T20:18:38.620Z,11.00
2024-02-08T20:21:06.695Z,11.00
2024-02-08T20:23:41.076Z,11.00
2024-02-08T20:26:09.942Z,11.00
2024-02-08T20:28:39.886Z,11.00
2024-02-08T20:31:19.959Z,11.00
2024-02-08T20:33:49.440Z,11.00
2024-02-08T20:36:17.860Z,11.00
2024-02-08T20:38:45.658Z,11.10
2024-02-08T20:41:13.677Z,11.20
2024-02-08T20:43:49.852Z,11.20
2024-02-08T20:46:18.145Z,11.20
2024-02-08T20:48:46.029Z,11.10
2024-02-08T20:51:17.295Z,11.10
2024-02-08T20:53:45.271Z,11.10
2024-02-08T20:56:23.947Z,11.00
2024-02-08T20:58:52.615Z,11.00
2024-02-08T21:01:20.448Z,11.00
2024-02-08T21:03:51.241Z,11.10
2024-02-08T21:06:23.391Z,11.10
2024-02-08T21:08:51.706Z,11.10
2024-02-08T21:11:19.890Z,11.10
2024-02-08T21:13:50.302Z,11.10
2024-02-08T21:16:21.217Z,11.10
2024-02-08T21:18:52.371Z,11.20
2024-02-08T21:21:20.563Z,11.10
2024-02-08T21:23:48.707Z,11.10
2024-02-08T21:26:16.793Z,11.00
2024-02-08T21:28:48.556Z,10.90
2024-02-08T21:31:19.940Z,10.90
2024-02-08T21:33:54.058Z,10.90
2024-02-08T21:36:26.666Z,11.00
2024-02-08T21:38:54.590Z,11.00
2024-02-08T21:41:22.286Z,11.00
2024-02-08T21:43:51.891Z,11.00
2024-02-08T21:46:22.899Z,11.00
2024-02-08T21:48:51.934Z,11.00
2024-02-08T21:51:19.836Z,11.00
2024-02-08T21:53:49.748Z,11.00
2024-02-08T21:56:20.246Z,11.00
2024-02-08T21:58:48.992Z,11.00
2024-02-08T22:01:35.469Z,11.00
2024-02-08T22:04:05.334Z,11.00
2024-02-08T22:06:34.658Z,11.00
2024-02-08T22:09:10.500Z,10.90
2024-02-08T22:11:46.505Z,10.90
2024-02-08T22:14:19.029Z,11.00
2024-02-08T22:16:48.641Z,10.90
2024-02-08T22:19:16.662Z,10.90
2024-02-08T22:21:46.520Z,11.00
2024-02-08T22:24:15.872Z,11.00
2024-02-08T22:26:53.285Z,11.00
2024-02-08T22:29:25.946Z,11.00
2024-02-08T22:31:54.018Z,11.00
2024-02-08T22:34:22.427Z,11.00
2024-02-08T22:36:50.257Z,10.90
2024-02-08T22:39:18.240Z,10.90
2024-02-08T22:41:49.122Z,11.00
2024-02-08T22:44:17.359Z,10.90
2024-02-08T22:46:45.364Z,10.90
2024-02-08T22:49:13.873Z,11.00
2024-02-08T22:51:47.338Z,11.00
2024-02-08T22:54:15.292Z,11.00
2024-02-08T22:56:43.013Z,11.10
2024-02-08T22:59:11.159Z,11.00
2024-02-08T23:01:44.385Z,10.90
2024-02-08T23:04:15.271Z,10.80
2024-02-08T23:06:44.060Z,10.80
2024-02-08T23:09:17.147Z,10.70
2024-02-08T23:11:47.352Z,10.70
2024-02-08T23:14:19.977Z,10.60
2024-02-08T23:16:52.873Z,10.70
2024-02-08T23:19:21.791Z,10.70
2024-02-08T23:21:58.621Z,10.80
2024-02-08T23:24:26.370Z,10.70
2024-02-08T23:26:54.350Z,10.60
2024-02-08T23:30:11.534Z,10.60
2024-02-08T23:32:44.420Z,10.60
2024-02-08T23:35:13.996Z,10.70
2024-02-08T23:37:41.958Z,10.50
2024-02-08T23:40:10.758Z,10.60
2024-02-08T23:42:40.355Z,10.60
2024-02-08T23:45:08.876Z,10.60
2024-02-08T23:47:39.287Z,10.60
2024-02-08T23:50:10.193Z,10.70
2024-02-08T23:52:43.399Z,10.70
2024-02-08T23:55:11.511Z,10.60
2024-02-08T23:57:39.474Z,10.60
